Terminal Aerodrome Forecast
Issued by NWS

Home | Current Version | Previous Version | Text Only | Print | Product List | Glossary On
Versions: 1 2 3 4 5 6 7 8 9 10 11 12 13
000
FTUS42 KTAE 292300
TAFABY
TAF
KABY 292321Z 3000/3024 20004KT P6SM FEW080 SCT250
     FM300200 00000KT P6SM FEW100 BKN250
      TEMPO 3008/3012 5SM BR SCT004
     FM301500 20007KT P6SM VCTS SCT035CB BKN050
      TEMPO 3020/3024 5SM TSRA BKN035CB=

USA.gov is the U.S. government's official web portal to all federal, state and local government web resources and services.